sensor_id;sensor_type;location;lat;lon;timestamp;temperature;humidity
20672;DHT22;10495;50.922;4.760;2022-08-23T00:02:00;19.80;67.60
20672;DHT22;10495;50.922;4.760;2022-08-23T00:04:29;19.70;68.30
20672;DHT22;10495;50.922;4.760;2022-08-23T00:06:56;19.70;67.90
20672;DHT22;10495;50.922;4.760;2022-08-23T00:09:23;19.70;67.70
20672;DHT22;10495;50.922;4.760;2022-08-23T00:12:09;19.70;67.70
20672;DHT22;10495;50.922;4.760;2022-08-23T00:14:38;19.70;67.80
20672;DHT22;10495;50.922;4.760;2022-08-23T00:17:05;19.70;67.90
20672;DHT22;10495;50.922;4.760;2022-08-23T00:19:30;19.60;68.30
20672;DHT22;10495;50.922;4.760;2022-08-23T00:21:57;19.60;68.70
20672;DHT22;10495;50.922;4.760;2022-08-23T00:24:24;19.60;68.80
20672;DHT22;10495;50.922;4.760;2022-08-23T00:27:14;19.50;69.00
20672;DHT22;10495;50.922;4.760;2022-08-23T00:29:47;19.50;69.50
20672;DHT22;10495;50.922;4.760;2022-08-23T00:32:20;19.50;69.50
20672;DHT22;10495;50.922;4.760;2022-08-23T00:34:46;19.50;69.70
20672;DHT22;10495;50.922;4.760;2022-08-23T00:37:13;19.50;69.70
20672;DHT22;10495;50.922;4.760;2022-08-23T00:39:39;19.50;69.50
20672;DHT22;10495;50.922;4.760;2022-08-23T00:44:58;19.50;69.60
20672;DHT22;10495;50.922;4.760;2022-08-23T00:47:44;19.40;70.20
20672;DHT22;10495;50.922;4.760;2022-08-23T00:51:29;19.40;70.60
20672;DHT22;10495;50.922;4.760;2022-08-23T00:53:26;19.40;70.80
20672;DHT22;10495;50.922;4.760;2022-08-23T00:55:57;19.30;70.90
20672;DHT22;10495;50.922;4.760;2022-08-23T00:58:23;19.30;71.00
20672;DHT22;10495;50.922;4.760;2022-08-23T01:00:51;19.30;71.10
20672;DHT22;10495;50.922;4.760;2022-08-23T01:03:19;19.40;71.30
20672;DHT22;10495;50.922;4.760;2022-08-23T01:08:37;19.30;71.30
20672;DHT22;10495;50.922;4.760;2022-08-23T01:11:37;19.30;71.60
20672;DHT22;10495;50.922;4.760;2022-08-23T01:14:42;19.30;71.60
20672;DHT22;10495;50.922;4.760;2022-08-23T01:17:31;19.30;71.60
20672;DHT22;10495;50.922;4.760;2022-08-23T01:20:06;19.30;71.90
20672;DHT22;10495;50.922;4.760;2022-08-23T01:25:15;19.30;72.00
20672;DHT22;10495;50.922;4.760;2022-08-23T01:27:43;19.40;72.30
20672;DHT22;10495;50.922;4.760;2022-08-23T01:30:12;19.40;72.40
20672;DHT22;10495;50.922;4.760;2022-08-23T01:32:50;19.30;72.30
20672;DHT22;10495;50.922;4.760;2022-08-23T01:35:19;19.40;72.30
20672;DHT22;10495;50.922;4.760;2022-08-23T01:37:45;19.30;72.50
20672;DHT22;10495;50.922;4.760;2022-08-23T01:40:12;19.30;73.20
20672;DHT22;10495;50.922;4.760;2022-08-23T01:42:39;19.20;73.20
20672;DHT22;10495;50.922;4.760;2022-08-23T01:45:10;19.20;72.90
20672;DHT22;10495;50.922;4.760;2022-08-23T01:47:36;19.20;72.90
20672;DHT22;10495;50.922;4.760;2022-08-23T01:50:03;19.20;72.80
20672;DHT22;10495;50.922;4.760;2022-08-23T01:52:29;19.20;72.80
20672;DHT22;10495;50.922;4.760;2022-08-23T01:54:54;19.20;72.80
20672;DHT22;10495;50.922;4.760;2022-08-23T01:57:22;19.20;72.80
20672;DHT22;10495;50.922;4.760;2022-08-23T01:59:48;19.20;72.80
20672;DHT22;10495;50.922;4.760;2022-08-23T02:02:14;19.20;73.10
20672;DHT22;10495;50.922;4.760;2022-08-23T02:04:40;19.20;73.10
20672;DHT22;10495;50.922;4.760;2022-08-23T02:07:05;19.10;73.10
20672;DHT22;10495;50.922;4.760;2022-08-23T02:09:31;19.10;73.20
20672;DHT22;10495;50.922;4.760;2022-08-23T02:11:56;19.10;73.10
20672;DHT22;10495;50.922;4.760;2022-08-23T02:14:22;19.00;73.00
20672;DHT22;10495;50.922;4.760;2022-08-23T02:16:51;19.00;72.90
20672;DHT22;10495;50.922;4.760;2022-08-23T02:19:18;19.00;73.00
20672;DHT22;10495;50.922;4.760;2022-08-23T02:21:44;19.00;73.20
20672;DHT22;10495;50.922;4.760;2022-08-23T02:24:19;18.90;73.20
20672;DHT22;10495;50.922;4.760;2022-08-23T02:26:48;18.90;73.50
20672;DHT22;10495;50.922;4.760;2022-08-23T02:29:15;18.90;73.70
20672;DHT22;10495;50.922;4.760;2022-08-23T02:31:41;18.90;73.80
20672;DHT22;10495;50.922;4.760;2022-08-23T02:34:09;18.80;74.60
20672;DHT22;10495;50.922;4.760;2022-08-23T02:36:35;18.80;74.10
20672;DHT22;10495;50.922;4.760;2022-08-23T02:39:01;18.80;74.20
20672;DHT22;10495;50.922;4.760;2022-08-23T02:41:26;18.80;74.10
20672;DHT22;10495;50.922;4.760;2022-08-23T02:43:52;18.80;74.70
20672;DHT22;10495;50.922;4.760;2022-08-23T02:46:19;18.80;74.90
20672;DHT22;10495;50.922;4.760;2022-08-23T02:48:46;18.80;74.90
20672;DHT22;10495;50.922;4.760;2022-08-23T02:51:12;18.90;75.00
20672;DHT22;10495;50.922;4.760;2022-08-23T02:53:37;18.90;74.90
20672;DHT22;10495;50.922;4.760;2022-08-23T02:56:04;18.90;75.00
20672;DHT22;10495;50.922;4.760;2022-08-23T02:58:29;18.90;75.10
20672;DHT22;10495;50.922;4.760;2022-08-23T03:00:55;18.90;75.20
20672;DHT22;10495;50.922;4.760;2022-08-23T03:03:21;18.90;75.20
20672;DHT22;10495;50.922;4.760;2022-08-23T03:05:47;18.90;75.60
20672;DHT22;10495;50.922;4.760;2022-08-23T03:08:13;18.90;75.60
20672;DHT22;10495;50.922;4.760;2022-08-23T03:10:45;18.90;75.60
20672;DHT22;10495;50.922;4.760;2022-08-23T03:13:10;19.00;75.60
20672;DHT22;10495;50.922;4.760;2022-08-23T03:15:37;18.90;75.50
20672;DHT22;10495;50.922;4.760;2022-08-23T03:18:03;18.80;76.40
20672;DHT22;10495;50.922;4.760;2022-08-23T03:20:29;18.70;76.70
20672;DHT22;10495;50.922;4.760;2022-08-23T03:22:54;18.80;76.80
20672;DHT22;10495;50.922;4.760;2022-08-23T03:25:21;18.80;76.60
20672;DHT22;10495;50.922;4.760;2022-08-23T03:27:46;18.70;76.50
20672;DHT22;10495;50.922;4.760;2022-08-23T03:30:12;18.80;76.40
20672;DHT22;10495;50.922;4.760;2022-08-23T03:32:38;18.80;76.30
20672;DHT22;10495;50.922;4.760;2022-08-23T03:35:04;18.80;76.20
20672;DHT22;10495;50.922;4.760;2022-08-23T03:37:31;18.80;76.20
20672;DHT22;10495;50.922;4.760;2022-08-23T03:39:56;18.80;76.60
20672;DHT22;10495;50.922;4.760;2022-08-23T03:42:22;18.80;76.00
20672;DHT22;10495;50.922;4.760;2022-08-23T03:44:48;18.80;76.00
20672;DHT22;10495;50.922;4.760;2022-08-23T03:47:14;18.70;75.80
20672;DHT22;10495;50.922;4.760;2022-08-23T03:49:40;18.80;75.80
20672;DHT22;10495;50.922;4.760;2022-08-23T03:52:06;18.80;75.80
20672;DHT22;10495;50.922;4.760;2022-08-23T03:54:32;18.70;75.90
20672;DHT22;10495;50.922;4.760;2022-08-23T03:57:00;18.70;75.90
20672;DHT22;10495;50.922;4.760;2022-08-23T03:59:28;18.70;76.00
20672;DHT22;10495;50.922;4.760;2022-08-23T04:01:54;18.60;76.00
20672;DHT22;10495;50.922;4.760;2022-08-23T04:04:20;18.60;75.90
20672;DHT22;10495;50.922;4.760;2022-08-23T04:06:46;18.50;76.50
20672;DHT22;10495;50.922;4.760;2022-08-23T04:09:13;18.50;76.50
20672;DHT22;10495;50.922;4.760;2022-08-23T04:11:39;18.50;76.40
20672;DHT22;10495;50.922;4.760;2022-08-23T04:14:05;18.40;76.40
20672;DHT22;10495;50.922;4.760;2022-08-23T04:16:32;18.40;76.30
20672;DHT22;10495;50.922;4.760;2022-08-23T04:19:06;18.40;76.20
20672;DHT22;10495;50.922;4.760;2022-08-23T04:21:33;18.40;76.60
20672;DHT22;10495;50.922;4.760;2022-08-23T04:23:59;18.30;76.70
20672;DHT22;10495;50.922;4.760;2022-08-23T04:26:25;18.30;77.30
20672;DHT22;10495;50.922;4.760;2022-08-23T04:28:51;18.20;77.00
20672;DHT22;10495;50.922;4.760;2022-08-23T04:31:18;18.20;77.10
20672;DHT22;10495;50.922;4.760;2022-08-23T04:33:44;18.20;77.20
20672;DHT22;10495;50.922;4.760;2022-08-23T04:36:10;18.20;77.20
20672;DHT22;10495;50.922;4.760;2022-08-23T04:38:36;18.20;77.20
20672;DHT22;10495;50.922;4.760;2022-08-23T04:41:02;18.20;77.30
20672;DHT22;10495;50.922;4.760;2022-08-23T04:43:47;18.20;77.00
20672;DHT22;10495;50.922;4.760;2022-08-23T04:46:14;18.20;76.60
20672;DHT22;10495;50.922;4.760;2022-08-23T04:48:41;18.20;76.80
20672;DHT22;10495;50.922;4.760;2022-08-23T04:51:07;18.20;77.00
20672;DHT22;10495;50.922;4.760;2022-08-23T04:53:33;18.20;77.00
20672;DHT22;10495;50.922;4.760;2022-08-23T04:56:00;18.20;77.10
20672;DHT22;10495;50.922;4.760;2022-08-23T04:58:27;18.10;77.30
20672;DHT22;10495;50.922;4.760;2022-08-23T05:00:53;18.10;78.80
20672;DHT22;10495;50.922;4.760;2022-08-23T05:03:19;18.00;80.30
20672;DHT22;10495;50.922;4.760;2022-08-23T05:05:45;18.10;80.70
20672;DHT22;10495;50.922;4.760;2022-08-23T05:08:11;18.10;80.60
20672;DHT22;10495;50.922;4.760;2022-08-23T05:10:37;18.00;80.90
20672;DHT22;10495;50.922;4.760;2022-08-23T05:13:03;18.10;80.80
20672;DHT22;10495;50.922;4.760;2022-08-23T05:15:28;18.20;80.60
20672;DHT22;10495;50.922;4.760;2022-08-23T05:17:54;18.20;80.50
20672;DHT22;10495;50.922;4.760;2022-08-23T05:20:20;18.30;80.30
20672;DHT22;10495;50.922;4.760;2022-08-23T05:22:45;18.40;80.10
20672;DHT22;10495;50.922;4.760;2022-08-23T05:25:11;18.40;80.10
20672;DHT22;10495;50.922;4.760;2022-08-23T05:27:37;18.40;80.60
20672;DHT22;10495;50.922;4.760;2022-08-23T05:30:04;18.40;80.80
20672;DHT22;10495;50.922;4.760;2022-08-23T05:32:30;18.50;80.90
20672;DHT22;10495;50.922;4.760;2022-08-23T05:34:56;18.60;80.80
20672;DHT22;10495;50.922;4.760;2022-08-23T05:37:21;18.60;81.20
20672;DHT22;10495;50.922;4.760;2022-08-23T05:39:47;18.60;81.20
20672;DHT22;10495;50.922;4.760;2022-08-23T05:42:14;18.70;81.00
20672;DHT22;10495;50.922;4.760;2022-08-23T05:44:41;18.70;80.80
20672;DHT22;10495;50.922;4.760;2022-08-23T05:49:34;18.80;80.70
20672;DHT22;10495;50.922;4.760;2022-08-23T05:52:03;18.90;81.10
20672;DHT22;10495;50.922;4.760;2022-08-23T05:54:29;19.00;80.30
20672;DHT22;10495;50.922;4.760;2022-08-23T05:56:54;19.10;79.80
20672;DHT22;10495;50.922;4.760;2022-08-23T05:59:20;19.20;79.70
20672;DHT22;10495;50.922;4.760;2022-08-23T06:01:46;19.50;80.10
20672;DHT22;10495;50.922;4.760;2022-08-23T06:04:12;19.90;80.20
20672;DHT22;10495;50.922;4.760;2022-08-23T06:06:39;20.30;80.00
20672;DHT22;10495;50.922;4.760;2022-08-23T06:09:10;20.80;79.30
20672;DHT22;10495;50.922;4.760;2022-08-23T06:11:36;21.30;77.80
20672;DHT22;10495;50.922;4.760;2022-08-23T06:14:04;21.90;76.60
20672;DHT22;10495;50.922;4.760;2022-08-23T06:16:36;22.50;75.70
20672;DHT22;10495;50.922;4.760;2022-08-23T06:19:03;23.00;73.40
20672;DHT22;10495;50.922;4.760;2022-08-23T06:21:30;23.50;72.50
20672;DHT22;10495;50.922;4.760;2022-08-23T06:23:56;24.10;69.70
20672;DHT22;10495;50.922;4.760;2022-08-23T06:26:25;24.70;68.30
20672;DHT22;10495;50.922;4.760;2022-08-23T06:28:54;25.20;66.30
20672;DHT22;10495;50.922;4.760;2022-08-23T06:31:22;25.70;65.40
20672;DHT22;10495;50.922;4.760;2022-08-23T06:34:13;26.10;62.20
20672;DHT22;10495;50.922;4.760;2022-08-23T06:36:39;26.60;61.80
20672;DHT22;10495;50.922;4.760;2022-08-23T06:39:06;27.10;59.40
20672;DHT22;10495;50.922;4.760;2022-08-23T06:41:32;27.40;58.70
20672;DHT22;10495;50.922;4.760;2022-08-23T06:43:58;27.70;58.50
20672;DHT22;10495;50.922;4.760;2022-08-23T06:46:26;28.00;57.50
20672;DHT22;10495;50.922;4.760;2022-08-23T06:48:53;28.30;56.90
20672;DHT22;10495;50.922;4.760;2022-08-23T06:51:27;28.70;56.90
20672;DHT22;10495;50.922;4.760;2022-08-23T06:53:55;29.10;56.40
20672;DHT22;10495;50.922;4.760;2022-08-23T06:56:23;29.10;55.70
20672;DHT22;10495;50.922;4.760;2022-08-23T06:58:49;29.20;56.00
20672;DHT22;10495;50.922;4.760;2022-08-23T07:03:52;29.70;55.30
20672;DHT22;10495;50.922;4.760;2022-08-23T07:06:23;29.90;55.30
20672;DHT22;10495;50.922;4.760;2022-08-23T07:08:49;29.90;54.80
20672;DHT22;10495;50.922;4.760;2022-08-23T07:11:16;30.10;54.80
20672;DHT22;10495;50.922;4.760;2022-08-23T07:13:42;30.20;54.50
20672;DHT22;10495;50.922;4.760;2022-08-23T07:16:08;30.40;54.60
20672;DHT22;10495;50.922;4.760;2022-08-23T07:18:34;30.50;54.50
20672;DHT22;10495;50.922;4.760;2022-08-23T07:21:02;30.60;54.30
20672;DHT22;10495;50.922;4.760;2022-08-23T07:23:29;30.70;54.30
20672;DHT22;10495;50.922;4.760;2022-08-23T07:25:59;30.80;54.00
20672;DHT22;10495;50.922;4.760;2022-08-23T07:28:26;31.00;54.20
20672;DHT22;10495;50.922;4.760;2022-08-23T07:30:52;31.00;53.70
20672;DHT22;10495;50.922;4.760;2022-08-23T07:33:20;31.10;53.70
20672;DHT22;10495;50.922;4.760;2022-08-23T07:35:50;31.30;53.90
20672;DHT22;10495;50.922;4.760;2022-08-23T07:38:16;31.30;53.50
20672;DHT22;10495;50.922;4.760;2022-08-23T07:40:43;31.40;53.50
20672;DHT22;10495;50.922;4.760;2022-08-23T07:43:09;31.70;53.40
20672;DHT22;10495;50.922;4.760;2022-08-23T07:45:36;31.90;52.90
20672;DHT22;10495;50.922;4.760;2022-08-23T07:48:02;32.30;52.60
20672;DHT22;10495;50.922;4.760;2022-08-23T07:50:28;32.40;52.50
20672;DHT22;10495;50.922;4.760;2022-08-23T07:52:54;32.60;52.30
20672;DHT22;10495;50.922;4.760;2022-08-23T07:55:20;32.80;51.80
20672;DHT22;10495;50.922;4.760;2022-08-23T07:57:46;33.00;51.80
20672;DHT22;10495;50.922;4.760;2022-08-23T08:00:13;33.30;51.40
20672;DHT22;10495;50.922;4.760;2022-08-23T08:02:39;33.50;51.90
20672;DHT22;10495;50.922;4.760;2022-08-23T08:05:05;33.50;52.00
20672;DHT22;10495;50.922;4.760;2022-08-23T08:07:31;33.80;52.20
20672;DHT22;10495;50.922;4.760;2022-08-23T08:09:56;34.00;51.00
20672;DHT22;10495;50.922;4.760;2022-08-23T08:12:22;34.00;50.90
20672;DHT22;10495;50.922;4.760;2022-08-23T08:14:48;34.20;50.90
20672;DHT22;10495;50.922;4.760;2022-08-23T08:17:15;34.30;50.90
20672;DHT22;10495;50.922;4.760;2022-08-23T08:19:43;34.30;50.80
20672;DHT22;10495;50.922;4.760;2022-08-23T08:22:10;34.50;50.70
20672;DHT22;10495;50.922;4.760;2022-08-23T08:24:38;34.50;50.30
20672;DHT22;10495;50.922;4.760;2022-08-23T08:27:04;34.60;50.50
20672;DHT22;10495;50.922;4.760;2022-08-23T08:29:30;34.70;50.00
20672;DHT22;10495;50.922;4.760;2022-08-23T08:31:56;34.90;50.80
20672;DHT22;10495;50.922;4.760;2022-08-23T08:34:21;35.10;50.50
20672;DHT22;10495;50.922;4.760;2022-08-23T08:36:50;35.20;50.30
20672;DHT22;10495;50.922;4.760;2022-08-23T08:39:23;35.20;49.80
20672;DHT22;10495;50.922;4.760;2022-08-23T08:42:14;35.50;49.70
20672;DHT22;10495;50.922;4.760;2022-08-23T08:44:52;35.80;50.30
20672;DHT22;10495;50.922;4.760;2022-08-23T08:50:19;36.30;49.00
20672;DHT22;10495;50.922;4.760;2022-08-23T08:52:50;35.80;49.00
20672;DHT22;10495;50.922;4.760;2022-08-23T08:55:21;36.00;48.50
20672;DHT22;10495;50.922;4.760;2022-08-23T08:57:48;35.90;49.40
20672;DHT22;10495;50.922;4.760;2022-08-23T09:00:20;36.10;49.00
20672;DHT22;10495;50.922;4.760;2022-08-23T09:02:46;36.40;49.20
20672;DHT22;10495;50.922;4.760;2022-08-23T09:05:22;36.50;48.80
20672;DHT22;10495;50.922;4.760;2022-08-23T09:16:13;36.60;48.00
20672;DHT22;10495;50.922;4.760;2022-08-23T09:18:41;36.70;48.10
20672;DHT22;10495;50.922;4.760;2022-08-23T09:21:07;36.60;47.50
20672;DHT22;10495;50.922;4.760;2022-08-23T09:23:42;36.70;48.00
20672;DHT22;10495;50.922;4.760;2022-08-23T09:28:43;36.90;47.80
20672;DHT22;10495;50.922;4.760;2022-08-23T09:31:10;36.90;47.50
20672;DHT22;10495;50.922;4.760;2022-08-23T09:33:41;36.90;47.80
20672;DHT22;10495;50.922;4.760;2022-08-23T09:36:26;37.00;47.90
20672;DHT22;10495;50.922;4.760;2022-08-23T09:41:47;37.20;47.20
20672;DHT22;10495;50.922;4.760;2022-08-23T09:44:13;36.70;47.30
20672;DHT22;10495;50.922;4.760;2022-08-23T09:47:10;36.40;47.00
20672;DHT22;10495;50.922;4.760;2022-08-23T09:49:37;35.60;47.50
20672;DHT22;10495;50.922;4.760;2022-08-23T09:52:17;35.10;48.00
20672;DHT22;10495;50.922;4.760;2022-08-23T09:54:53;35.40;48.10
20672;DHT22;10495;50.922;4.760;2022-08-23T09:57:24;35.70;47.70
20672;DHT22;10495;50.922;4.760;2022-08-23T09:59:51;36.00;48.00
20672;DHT22;10495;50.922;4.760;2022-08-23T10:02:29;36.20;47.50
20672;DHT22;10495;50.922;4.760;2022-08-23T10:05:04;36.30;47.70
20672;DHT22;10495;50.922;4.760;2022-08-23T10:07:36;36.60;47.30
20672;DHT22;10495;50.922;4.760;2022-08-23T10:12:42;36.60;46.90
20672;DHT22;10495;50.922;4.760;2022-08-23T10:15:08;36.40;47.40
20672;DHT22;10495;50.922;4.760;2022-08-23T10:17:50;36.00;46.80
20672;DHT22;10495;50.922;4.760;2022-08-23T10:20:44;35.90;48.00
20672;DHT22;10495;50.922;4.760;2022-08-23T10:25:59;35.60;47.60
20672;DHT22;10495;50.922;4.760;2022-08-23T10:37:30;34.20;48.60
20672;DHT22;10495;50.922;4.760;2022-08-23T10:40:22;34.00;48.50
20672;DHT22;10495;50.922;4.760;2022-08-23T10:45:37;33.70;48.00
20672;DHT22;10495;50.922;4.760;2022-08-23T10:53:40;32.90;49.10
20672;DHT22;10495;50.922;4.760;2022-08-23T10:56:15;32.70;48.80
20672;DHT22;10495;50.922;4.760;2022-08-23T10:59:32;32.60;48.60
20672;DHT22;10495;50.922;4.760;2022-08-23T11:01:49;32.50;49.10
20672;DHT22;10495;50.922;4.760;2022-08-23T11:04:29;32.50;49.70
20672;DHT22;10495;50.922;4.760;2022-08-23T11:07:00;32.60;49.40
20672;DHT22;10495;50.922;4.760;2022-08-23T11:10:09;32.60;49.10
20672;DHT22;10495;50.922;4.760;2022-08-23T11:12:35;32.60;49.30
20672;DHT22;10495;50.922;4.760;2022-08-23T11:15:03;32.60;48.90
20672;DHT22;10495;50.922;4.760;2022-08-23T11:23:20;32.10;49.10
20672;DHT22;10495;50.922;4.760;2022-08-23T11:26:00;31.90;49.00
20672;DHT22;10495;50.922;4.760;2022-08-23T11:33:40;31.30;49.50
20672;DHT22;10495;50.922;4.760;2022-08-23T11:41:24;31.00;50.30
20672;DHT22;10495;50.922;4.760;2022-08-23T11:46:34;31.00;50.40
20672;DHT22;10495;50.922;4.760;2022-08-23T11:54:32;31.40;50.40
20672;DHT22;10495;50.922;4.760;2022-08-23T11:57:25;31.40;50.60
20672;DHT22;10495;50.922;4.760;2022-08-23T12:16:08;31.70;50.20
20672;DHT22;10495;50.922;4.760;2022-08-23T12:21:39;31.80;50.10
20672;DHT22;10495;50.922;4.760;2022-08-23T12:24:16;31.70;49.70
20672;DHT22;10495;50.922;4.760;2022-08-23T12:31:54;31.50;49.70
20672;DHT22;10495;50.922;4.760;2022-08-23T12:39:57;31.20;50.10
20672;DHT22;10495;50.922;4.760;2022-08-23T12:42:27;31.10;50.00
20672;DHT22;10495;50.922;4.760;2022-08-23T12:45:07;31.30;50.40
20672;DHT22;10495;50.922;4.760;2022-08-23T12:47:35;31.50;50.40
20672;DHT22;10495;50.922;4.760;2022-08-23T12:50:19;31.40;50.60
20672;DHT22;10495;50.922;4.760;2022-08-23T12:53:01;31.50;50.20
20672;DHT22;10495;50.922;4.760;2022-08-23T12:55:34;31.40;50.10
20672;DHT22;10495;50.922;4.760;2022-08-23T12:58:01;31.40;50.00
20672;DHT22;10495;50.922;4.760;2022-08-23T13:03:04;31.50;50.10
20672;DHT22;10495;50.922;4.760;2022-08-23T13:05:46;31.40;50.20
20672;DHT22;10495;50.922;4.760;2022-08-23T13:11:06;31.40;50.50
20672;DHT22;10495;50.922;4.760;2022-08-23T13:13:32;31.40;50.70
20672;DHT22;10495;50.922;4.760;2022-08-23T13:16:01;31.40;49.80
20672;DHT22;10495;50.922;4.760;2022-08-23T13:18:40;31.50;49.70
20672;DHT22;10495;50.922;4.760;2022-08-23T13:21:26;31.70;50.10
20672;DHT22;10495;50.922;4.760;2022-08-23T13:23:56;31.80;49.60
20672;DHT22;10495;50.922;4.760;2022-08-23T13:26:39;31.80;49.00
20672;DHT22;10495;50.922;4.760;2022-08-23T13:34:37;31.70;49.20
20672;DHT22;10495;50.922;4.760;2022-08-23T13:39:52;31.90;49.00
20672;DHT22;10495;50.922;4.760;2022-08-23T13:42:35;32.00;48.80
20672;DHT22;10495;50.922;4.760;2022-08-23T13:45:12;32.30;48.80
20672;DHT22;10495;50.922;4.760;2022-08-23T13:47:45;32.30;48.60
20672;DHT22;10495;50.922;4.760;2022-08-23T13:50:16;32.20;48.50
20672;DHT22;10495;50.922;4.760;2022-08-23T13:52:42;32.30;48.20
20672;DHT22;10495;50.922;4.760;2022-08-23T13:55:07;32.10;48.70
20672;DHT22;10495;50.922;4.760;2022-08-23T13:57:36;32.00;48.40
20672;DHT22;10495;50.922;4.760;2022-08-23T14:00:04;31.80;49.10
20672;DHT22;10495;50.922;4.760;2022-08-23T14:02:32;31.30;49.50
20672;DHT22;10495;50.922;4.760;2022-08-23T14:04:58;31.20;49.70
20672;DHT22;10495;50.922;4.760;2022-08-23T14:07:24;31.00;50.10
20672;DHT22;10495;50.922;4.760;2022-08-23T14:09:49;31.00;49.80
20672;DHT22;10495;50.922;4.760;2022-08-23T14:12:21;30.80;49.60
20672;DHT22;10495;50.922;4.760;2022-08-23T14:14:47;30.80;50.00
20672;DHT22;10495;50.922;4.760;2022-08-23T14:17:13;31.00;50.00
20672;DHT22;10495;50.922;4.760;2022-08-23T14:19:40;31.10;49.80
20672;DHT22;10495;50.922;4.760;2022-08-23T14:22:07;31.20;49.60
20672;DHT22;10495;50.922;4.760;2022-08-23T14:24:33;31.40;49.70
20672;DHT22;10495;50.922;4.760;2022-08-23T14:26:59;31.40;50.10
20672;DHT22;10495;50.922;4.760;2022-08-23T14:29:26;31.30;49.60
20672;DHT22;10495;50.922;4.760;2022-08-23T14:31:56;31.10;49.50
20672;DHT22;10495;50.922;4.760;2022-08-23T14:34:22;31.10;49.30
20672;DHT22;10495;50.922;4.760;2022-08-23T14:36:49;31.30;49.70
20672;DHT22;10495;50.922;4.760;2022-08-23T14:39:16;31.50;49.40
20672;DHT22;10495;50.922;4.760;2022-08-23T14:41:41;31.60;49.50
20672;DHT22;10495;50.922;4.760;2022-08-23T14:44:07;31.80;48.90
20672;DHT22;10495;50.922;4.760;2022-08-23T14:46:33;31.90;49.00
20672;DHT22;10495;50.922;4.760;2022-08-23T14:48:58;32.00;48.70
20672;DHT22;10495;50.922;4.760;2022-08-23T14:51:31;32.00;49.20
20672;DHT22;10495;50.922;4.760;2022-08-23T14:53:59;32.20;48.40
20672;DHT22;10495;50.922;4.760;2022-08-23T14:56:25;32.20;48.30
20672;DHT22;10495;50.922;4.760;2022-08-23T14:58:51;32.20;48.10
20672;DHT22;10495;50.922;4.760;2022-08-23T15:01:18;32.20;48.90
20672;DHT22;10495;50.922;4.760;2022-08-23T15:03:44;32.10;48.40
20672;DHT22;10495;50.922;4.760;2022-08-23T15:06:11;32.20;48.80
20672;DHT22;10495;50.922;4.760;2022-08-23T15:08:37;31.90;48.50
20672;DHT22;10495;50.922;4.760;2022-08-23T15:11:04;32.10;48.60
20672;DHT22;10495;50.922;4.760;2022-08-23T15:13:32;32.00;48.70
20672;DHT22;10495;50.922;4.760;2022-08-23T15:15:59;32.00;48.70
20672;DHT22;10495;50.922;4.760;2022-08-23T15:18:25;31.90;48.90
20672;DHT22;10495;50.922;4.760;2022-08-23T15:20:51;31.80;48.80
20672;DHT22;10495;50.922;4.760;2022-08-23T15:23:17;31.60;49.10
20672;DHT22;10495;50.922;4.760;2022-08-23T15:25:43;31.60;49.30
20672;DHT22;10495;50.922;4.760;2022-08-23T15:28:11;31.60;49.30
20672;DHT22;10495;50.922;4.760;2022-08-23T15:30:37;31.30;49.60
20672;DHT22;10495;50.922;4.760;2022-08-23T15:33:03;31.00;49.50
20672;DHT22;10495;50.922;4.760;2022-08-23T15:35:34;31.10;49.60
20672;DHT22;10495;50.922;4.760;2022-08-23T15:38:00;31.20;49.30
20672;DHT22;10495;50.922;4.760;2022-08-23T15:40:26;31.20;49.00
20672;DHT22;10495;50.922;4.760;2022-08-23T15:42:52;31.40;48.80
20672;DHT22;10495;50.922;4.760;2022-08-23T15:45:17;31.40;49.00
20672;DHT22;10495;50.922;4.760;2022-08-23T15:47:52;31.30;48.80
20672;DHT22;10495;50.922;4.760;2022-08-23T15:50:21;31.20;49.20
20672;DHT22;10495;50.922;4.760;2022-08-23T15:52:47;31.10;49.00
20672;DHT22;10495;50.922;4.760;2022-08-23T15:55:13;31.20;49.30
20672;DHT22;10495;50.922;4.760;2022-08-23T15:57:43;31.10;49.20
20672;DHT22;10495;50.922;4.760;2022-08-23T16:00:10;31.10;49.40
20672;DHT22;10495;50.922;4.760;2022-08-23T16:02:37;31.00;49.60
20672;DHT22;10495;50.922;4.760;2022-08-23T16:05:04;30.90;49.60
20672;DHT22;10495;50.922;4.760;2022-08-23T16:07:30;31.00;49.70
20672;DHT22;10495;50.922;4.760;2022-08-23T16:09:57;31.00;49.70
20672;DHT22;10495;50.922;4.760;2022-08-23T16:12:24;31.00;49.70
20672;DHT22;10495;50.922;4.760;2022-08-23T16:14:50;31.00;49.30
20672;DHT22;10495;50.922;4.760;2022-08-23T16:17:18;31.00;49.30
20672;DHT22;10495;50.922;4.760;2022-08-23T16:19:44;30.80;49.00
20672;DHT22;10495;50.922;4.760;2022-08-23T16:22:10;30.80;49.20
20672;DHT22;10495;50.922;4.760;2022-08-23T16:24:36;30.60;49.00
20672;DHT22;10495;50.922;4.760;2022-08-23T16:27:04;30.70;49.10
20672;DHT22;10495;50.922;4.760;2022-08-23T16:29:30;30.70;49.00
20672;DHT22;10495;50.922;4.760;2022-08-23T16:31:59;30.70;48.70
20672;DHT22;10495;50.922;4.760;2022-08-23T16:34:25;30.60;49.00
20672;DHT22;10495;50.922;4.760;2022-08-23T16:36:55;30.60;49.00
20672;DHT22;10495;50.922;4.760;2022-08-23T16:39:21;30.50;49.30
20672;DHT22;10495;50.922;4.760;2022-08-23T16:41:47;30.50;49.40
20672;DHT22;10495;50.922;4.760;2022-08-23T16:44:12;30.50;49.40
20672;DHT22;10495;50.922;4.760;2022-08-23T16:46:38;30.40;49.50
20672;DHT22;10495;50.922;4.760;2022-08-23T16:49:08;30.40;49.80
20672;DHT22;10495;50.922;4.760;2022-08-23T16:51:33;30.40;49.50
20672;DHT22;10495;50.922;4.760;2022-08-23T16:53:59;30.50;49.70
20672;DHT22;10495;50.922;4.760;2022-08-23T16:56:24;30.50;49.80
20672;DHT22;10495;50.922;4.760;2022-08-23T16:58:50;30.40;49.70
20672;DHT22;10495;50.922;4.760;2022-08-23T17:01:16;30.40;49.80
20672;DHT22;10495;50.922;4.760;2022-08-23T17:03:44;30.30;49.80
20672;DHT22;10495;50.922;4.760;2022-08-23T17:06:10;30.20;49.90
20672;DHT22;10495;50.922;4.760;2022-08-23T17:08:36;30.20;49.80
20672;DHT22;10495;50.922;4.760;2022-08-23T17:11:03;30.20;50.00
20672;DHT22;10495;50.922;4.760;2022-08-23T17:13:29;30.20;50.20
20672;DHT22;10495;50.922;4.760;2022-08-23T17:15:55;30.10;50.10
20672;DHT22;10495;50.922;4.760;2022-08-23T17:18:20;30.10;50.40
20672;DHT22;10495;50.922;4.760;2022-08-23T17:20:47;30.10;50.30
20672;DHT22;10495;50.922;4.760;2022-08-23T17:23:14;30.10;50.50
20672;DHT22;10495;50.922;4.760;2022-08-23T17:25:40;30.00;50.30
20672;DHT22;10495;50.922;4.760;2022-08-23T17:28:13;30.00;50.40
20672;DHT22;10495;50.922;4.760;2022-08-23T17:30:38;30.00;50.50
20672;DHT22;10495;50.922;4.760;2022-08-23T17:33:04;29.90;50.70
20672;DHT22;10495;50.922;4.760;2022-08-23T17:35:31;29.90;50.80
20672;DHT22;10495;50.922;4.760;2022-08-23T17:37:57;29.80;50.70
20672;DHT22;10495;50.922;4.760;2022-08-23T17:40:29;29.90;50.60
20672;DHT22;10495;50.922;4.760;2022-08-23T17:42:56;29.90;50.60